CheckWX is a tool to help pilots better visualize weather data.  It is not intended as a substitute for an official pre-flight weather briefing.

17:27:13 UTC

KLFT METAR
Lafayette Regional / Paul Fournet Field Airport
Lafayette, Louisiana, USA
Current

34 mins ago

KLFT 211653Z 18006KT 10SM BKN018 30/24 A3002 RMK AO2 SLP164 T03000244
Observed
Jul-21 @ 16:53 UTC
Wind
  • 180° at 6 KTS
Visibility
10 SM
Flight Rules
MVFR
Cloud Levels
  • Broken at 1,800' AGL
Temperature
30°C / 86°F
Dewpoint
24°C / 75°F
Heat Index
35°C / 95°F
Humidity
70%
Altimeter
30.02" Hg
Pressure
1016.62 hPa
Previous

54 mins ago

KLFT 211633Z 20005KT 10SM BKN020 30/25 A3002 RMK AO2 T03000250
Observed
Jul-21 @ 16:33 UTC
Wind
  • 200° at 5 KTS
Visibility
10 SM
Flight Rules
MVFR
Cloud Levels
  • Broken at 2,000' AGL
Temperature
30°C / 86°F
Dewpoint
25°C / 77°F
Heat Index
36°C / 97°F
Humidity
75%
Altimeter
30.02" Hg
Pressure
1016.62 hPa
Previous

2 hours ago

KLFT 211553Z 00000KT 10SM CLR 29/24 A3003 RMK AO2 SLP167 T02890244
Observed
Jul-21 @ 15:53 UTC
Visibility
10 SM
Flight Rules
VFR
Cloud Levels
  • Clear skies
Temperature
29°C / 84°F
Dewpoint
24°C / 75°F
Heat Index
33°C / 92°F
Humidity
74%
Altimeter
30.03" Hg
Pressure
1016.92 hPa